sensor_id;sensor_type;location;lat;lon;timestamp;pressure;altitude;pressure_sealevel;temperature;humidity
9774;BME280;4926;42.670;23.316;2022-08-06T00:00:24;94420.09;;;24.44;58.09
9774;BME280;4926;42.670;23.316;2022-08-06T00:02:59;94411.16;;;24.40;58.34
9774;BME280;4926;42.670;23.316;2022-08-06T00:05:25;94415.38;;;24.34;58.44
9774;BME280;4926;42.670;23.316;2022-08-06T00:07:55;94409.84;;;24.23;58.74
9774;BME280;4926;42.670;23.316;2022-08-06T00:10:25;94423.44;;;23.87;59.77
9774;BME280;4926;42.670;23.316;2022-08-06T00:12:54;94427.91;;;23.69;61.12
9774;BME280;4926;42.670;23.316;2022-08-06T00:15:23;94422.66;;;23.50;61.96
9774;BME280;4926;42.670;23.316;2022-08-06T00:17:50;94433.97;;;23.25;62.63
9774;BME280;4926;42.670;23.316;2022-08-06T00:20:20;94432.56;;;23.05;63.08
9774;BME280;4926;42.670;23.316;2022-08-06T00:22:48;94434.69;;;22.89;63.86
9774;BME280;4926;42.670;23.316;2022-08-06T00:25:18;94430.69;;;22.83;64.13
9774;BME280;4926;42.670;23.316;2022-08-06T00:27:44;94439.25;;;22.85;64.16
9774;BME280;4926;42.670;23.316;2022-08-06T00:30:14;94447.63;;;22.73;64.32
9774;BME280;4926;42.670;23.316;2022-08-06T00:32:41;94450.66;;;22.68;64.71
9774;BME280;4926;42.670;23.316;2022-08-06T00:35:12;94440.94;;;22.67;64.75
9774;BME280;4926;42.670;23.316;2022-08-06T00:37:38;94450.66;;;22.68;65.19
9774;BME280;4926;42.670;23.316;2022-08-06T00:40:06;94446.06;;;22.72;65.55
9774;BME280;4926;42.670;23.316;2022-08-06T00:42:35;94446.22;;;22.83;65.48
9774;BME280;4926;42.670;23.316;2022-08-06T00:45:02;94442.72;;;22.82;65.17
9774;BME280;4926;42.670;23.316;2022-08-06T00:47:29;94448.66;;;22.91;65.16
9774;BME280;4926;42.670;23.316;2022-08-06T00:49:56;94423.03;;;22.89;64.02
9774;BME280;4926;42.670;23.316;2022-08-06T00:52:23;94438.72;;;23.02;63.84
9774;BME280;4926;42.670;23.316;2022-08-06T00:54:55;94439.22;;;23.11;63.73
9774;BME280;4926;42.670;23.316;2022-08-06T00:57:22;94442.78;;;23.15;63.78
9774;BME280;4926;42.670;23.316;2022-08-06T00:59:50;94442.03;;;23.18;63.40
9774;BME280;4926;42.670;23.316;2022-08-06T01:02:17;94440.91;;;23.19;62.95
9774;BME280;4926;42.670;23.316;2022-08-06T01:04:47;94437.44;;;23.22;63.04
9774;BME280;4926;42.670;23.316;2022-08-06T01:07:14;94438.34;;;23.30;63.11
9774;BME280;4926;42.670;23.316;2022-08-06T01:09:44;94436.06;;;23.36;62.91
9774;BME280;4926;42.670;23.316;2022-08-06T01:12:10;94433.72;;;23.34;63.32
9774;BME280;4926;42.670;23.316;2022-08-06T01:14:40;94430.72;;;23.43;63.18
9774;BME280;4926;42.670;23.316;2022-08-06T01:17:15;94432.72;;;23.46;62.62
9774;BME280;4926;42.670;23.316;2022-08-06T01:19:51;94430.00;;;23.46;62.40
9774;BME280;4926;42.670;23.316;2022-08-06T01:22:53;94428.75;;;23.40;62.63
9774;BME280;4926;42.670;23.316;2022-08-06T01:25:42;94422.56;;;23.43;62.60
9774;BME280;4926;42.670;23.316;2022-08-06T01:28:16;94431.47;;;23.40;62.87
9774;BME280;4926;42.670;23.316;2022-08-06T01:30:48;94423.69;;;23.38;62.98
9774;BME280;4926;42.670;23.316;2022-08-06T01:33:20;94428.00;;;23.43;62.82
9774;BME280;4926;42.670;23.316;2022-08-06T01:35:54;94429.91;;;23.39;62.85
9774;BME280;4926;42.670;23.316;2022-08-06T01:38:26;94424.41;;;23.32;63.17
9774;BME280;4926;42.670;23.316;2022-08-06T01:40:57;94430.91;;;22.97;65.30
9774;BME280;4926;42.670;23.316;2022-08-06T01:43:31;94433.00;;;23.07;65.64
9774;BME280;4926;42.670;23.316;2022-08-06T01:46:02;94433.53;;;23.20;65.20
9774;BME280;4926;42.670;23.316;2022-08-06T01:48:30;94424.25;;;23.21;64.91
9774;BME280;4926;42.670;23.316;2022-08-06T01:51:02;94424.97;;;23.18;64.93
9774;BME280;4926;42.670;23.316;2022-08-06T01:56:02;94421.81;;;23.12;64.80
9774;BME280;4926;42.670;23.316;2022-08-06T01:58:34;94414.06;;;23.14;64.52
9774;BME280;4926;42.670;23.316;2022-08-06T02:01:06;94410.81;;;23.02;64.60
9774;BME280;4926;42.670;23.316;2022-08-06T02:03:38;94410.75;;;22.98;64.76
9774;BME280;4926;42.670;23.316;2022-08-06T02:06:06;94408.72;;;22.92;64.56
9774;BME280;4926;42.670;23.316;2022-08-06T02:08:35;94399.81;;;22.91;64.60
9774;BME280;4926;42.670;23.316;2022-08-06T02:11:07;94402.09;;;22.89;64.84
9774;BME280;4926;42.670;23.316;2022-08-06T02:13:36;94396.66;;;22.89;64.46
9774;BME280;4926;42.670;23.316;2022-08-06T02:16:04;94392.78;;;22.90;64.47
9774;BME280;4926;42.670;23.316;2022-08-06T02:18:37;94389.84;;;23.02;63.91
9774;BME280;4926;42.670;23.316;2022-08-06T02:21:10;94388.19;;;22.94;63.96
9774;BME280;4926;42.670;23.316;2022-08-06T02:23:39;94377.66;;;22.89;64.17
9774;BME280;4926;42.670;23.316;2022-08-06T02:26:07;94381.47;;;22.85;64.23
9774;BME280;4926;42.670;23.316;2022-08-06T02:28:38;94379.53;;;22.85;64.21
9774;BME280;4926;42.670;23.316;2022-08-06T02:31:09;94377.16;;;22.80;64.02
9774;BME280;4926;42.670;23.316;2022-08-06T02:33:40;94383.66;;;22.72;63.79
9774;BME280;4926;42.670;23.316;2022-08-06T02:36:13;94381.66;;;22.69;63.85
9774;BME280;4926;42.670;23.316;2022-08-06T02:38:48;94383.59;;;22.69;63.89
9774;BME280;4926;42.670;23.316;2022-08-06T02:41:21;94381.31;;;22.48;64.42
9774;BME280;4926;42.670;23.316;2022-08-06T02:43:56;94383.00;;;22.30;64.89
9774;BME280;4926;42.670;23.316;2022-08-06T02:46:27;94377.47;;;22.23;65.35
9774;BME280;4926;42.670;23.316;2022-08-06T02:49:01;94370.34;;;22.15;65.49
9774;BME280;4926;42.670;23.316;2022-08-06T02:51:36;94377.47;;;22.23;65.71
9774;BME280;4926;42.670;23.316;2022-08-06T02:54:06;94379.44;;;22.26;65.65
9774;BME280;4926;42.670;23.316;2022-08-06T02:56:35;94374.06;;;22.30;65.63
9774;BME280;4926;42.670;23.316;2022-08-06T02:59:11;94376.41;;;22.31;65.45
9774;BME280;4926;42.670;23.316;2022-08-06T03:01:51;94383.41;;;22.32;65.37
9774;BME280;4926;42.670;23.316;2022-08-06T03:04:27;94387.63;;;22.30;65.32
9774;BME280;4926;42.670;23.316;2022-08-06T03:06:55;94388.84;;;22.32;65.15
9774;BME280;4926;42.670;23.316;2022-08-06T03:09:24;94394.59;;;22.31;65.52
9774;BME280;4926;42.670;23.316;2022-08-06T03:11:52;94384.97;;;22.33;65.42
9774;BME280;4926;42.670;23.316;2022-08-06T03:14:21;94387.31;;;22.35;65.14
9774;BME280;4926;42.670;23.316;2022-08-06T03:16:52;94390.50;;;22.40;64.99
9774;BME280;4926;42.670;23.316;2022-08-06T03:19:23;94389.28;;;22.38;64.96
9774;BME280;4926;42.670;23.316;2022-08-06T03:21:53;94389.66;;;22.36;64.93
9774;BME280;4926;42.670;23.316;2022-08-06T03:24:23;94392.63;;;22.28;65.29
9774;BME280;4926;42.670;23.316;2022-08-06T03:26:55;94395.34;;;22.28;65.47
9774;BME280;4926;42.670;23.316;2022-08-06T03:29:25;94394.09;;;22.22;65.43
9774;BME280;4926;42.670;23.316;2022-08-06T03:31:53;94394.03;;;22.18;65.59
9774;BME280;4926;42.670;23.316;2022-08-06T03:34:23;94383.53;;;22.16;65.28
9774;BME280;4926;42.670;23.316;2022-08-06T03:36:56;94389.81;;;21.98;67.37
9774;BME280;4926;42.670;23.316;2022-08-06T03:39:24;94384.66;;;21.89;68.01
9774;BME280;4926;42.670;23.316;2022-08-06T03:41:52;94387.16;;;21.79;68.80
9774;BME280;4926;42.670;23.316;2022-08-06T03:44:19;94381.66;;;21.75;69.52
9774;BME280;4926;42.670;23.316;2022-08-06T03:46:53;94378.88;;;21.72;70.32
9774;BME280;4926;42.670;23.316;2022-08-06T03:49:23;94381.94;;;21.48;72.04
9774;BME280;4926;42.670;23.316;2022-08-06T03:51:53;94377.13;;;21.38;72.61
9774;BME280;4926;42.670;23.316;2022-08-06T03:54:23;94376.38;;;21.41;73.12
9774;BME280;4926;42.670;23.316;2022-08-06T03:56:54;94384.38;;;21.34;72.74
9774;BME280;4926;42.670;23.316;2022-08-06T03:59:25;94376.53;;;21.29;72.78
9774;BME280;4926;42.670;23.316;2022-08-06T04:01:57;94377.91;;;21.19;74.04
9774;BME280;4926;42.670;23.316;2022-08-06T04:04:25;94379.13;;;21.22;74.40
9774;BME280;4926;42.670;23.316;2022-08-06T04:06:53;94382.53;;;21.19;74.03
9774;BME280;4926;42.670;23.316;2022-08-06T04:09:21;94393.22;;;21.31;73.81
9774;BME280;4926;42.670;23.316;2022-08-06T04:11:49;94392.78;;;21.29;74.14
9774;BME280;4926;42.670;23.316;2022-08-06T04:14:16;94387.78;;;21.12;75.08
9774;BME280;4926;42.670;23.316;2022-08-06T04:16:54;94387.25;;;21.02;74.80
9774;BME280;4926;42.670;23.316;2022-08-06T04:19:23;94387.75;;;20.92;75.35
9774;BME280;4926;42.670;23.316;2022-08-06T04:21:50;94389.81;;;21.15;75.55
9774;BME280;4926;42.670;23.316;2022-08-06T04:24:17;94393.09;;;21.24;74.97
9774;BME280;4926;42.670;23.316;2022-08-06T04:26:49;94395.94;;;21.31;73.30
9774;BME280;4926;42.670;23.316;2022-08-06T04:29:21;94396.47;;;21.40;73.16
9774;BME280;4926;42.670;23.316;2022-08-06T04:31:50;94399.19;;;21.21;74.26
9774;BME280;4926;42.670;23.316;2022-08-06T04:34:25;94400.63;;;21.34;74.55
9774;BME280;4926;42.670;23.316;2022-08-06T04:36:54;94398.31;;;21.55;73.48
9774;BME280;4926;42.670;23.316;2022-08-06T04:39:21;94404.13;;;21.76;72.23
9774;BME280;4926;42.670;23.316;2022-08-06T04:41:49;94404.53;;;21.97;71.21
9774;BME280;4926;42.670;23.316;2022-08-06T04:44:16;94412.91;;;22.11;70.58
9774;BME280;4926;42.670;23.316;2022-08-06T04:46:43;94415.00;;;22.21;69.89
9774;BME280;4926;42.670;23.316;2022-08-06T04:49:14;94409.81;;;22.35;69.18
9774;BME280;4926;42.670;23.316;2022-08-06T04:51:46;94410.03;;;22.49;68.58
9774;BME280;4926;42.670;23.316;2022-08-06T04:54:14;94409.03;;;22.61;68.10
9774;BME280;4926;42.670;23.316;2022-08-06T04:56:42;94407.19;;;22.65;68.13
9774;BME280;4926;42.670;23.316;2022-08-06T04:59:09;94421.22;;;22.70;68.26
9774;BME280;4926;42.670;23.316;2022-08-06T05:01:40;94422.81;;;22.75;67.67
9774;BME280;4926;42.670;23.316;2022-08-06T05:04:06;94425.53;;;22.75;67.34
9774;BME280;4926;42.670;23.316;2022-08-06T05:06:40;94417.78;;;22.73;67.58
9774;BME280;4926;42.670;23.316;2022-08-06T05:09:19;94412.44;;;22.54;67.71
9774;BME280;4926;42.670;23.316;2022-08-06T05:11:50;94418.94;;;22.72;67.21
9774;BME280;4926;42.670;23.316;2022-08-06T05:14:26;94418.38;;;22.89;66.47
9774;BME280;4926;42.670;23.316;2022-08-06T05:17:03;94424.47;;;23.09;65.51
9774;BME280;4926;42.670;23.316;2022-08-06T05:22:06;94426.50;;;23.15;64.73
9774;BME280;4926;42.670;23.316;2022-08-06T05:24:35;94420.41;;;23.25;64.61
9774;BME280;4926;42.670;23.316;2022-08-06T05:27:03;94415.09;;;23.33;64.28
9774;BME280;4926;42.670;23.316;2022-08-06T05:29:29;94419.06;;;23.39;63.83
9774;BME280;4926;42.670;23.316;2022-08-06T05:31:57;94419.84;;;23.43;63.74
9774;BME280;4926;42.670;23.316;2022-08-06T05:34:25;94418.47;;;23.56;63.58
9774;BME280;4926;42.670;23.316;2022-08-06T05:36:52;94422.09;;;23.67;62.87
9774;BME280;4926;42.670;23.316;2022-08-06T05:39:19;94416.28;;;23.68;62.89
9774;BME280;4926;42.670;23.316;2022-08-06T05:41:49;94420.22;;;23.74;62.49
9774;BME280;4926;42.670;23.316;2022-08-06T05:44:16;94434.22;;;23.76;62.34
9774;BME280;4926;42.670;23.316;2022-08-06T05:46:48;94421.91;;;23.86;62.08
9774;BME280;4926;42.670;23.316;2022-08-06T05:49:21;94430.13;;;23.93;62.01
9774;BME280;4926;42.670;23.316;2022-08-06T05:51:51;94425.13;;;23.98;61.81
9774;BME280;4926;42.670;23.316;2022-08-06T05:54:23;94422.91;;;24.07;61.37
9774;BME280;4926;42.670;23.316;2022-08-06T05:57:00;94427.63;;;24.10;61.33
9774;BME280;4926;42.670;23.316;2022-08-06T05:59:34;94427.72;;;24.21;60.82
9774;BME280;4926;42.670;23.316;2022-08-06T06:02:02;94418.72;;;24.17;60.58
9774;BME280;4926;42.670;23.316;2022-08-06T06:04:31;94418.78;;;24.24;60.22
9774;BME280;4926;42.670;23.316;2022-08-06T06:07:03;94418.41;;;24.25;59.95
9774;BME280;4926;42.670;23.316;2022-08-06T06:09:31;94420.00;;;24.30;59.67
9774;BME280;4926;42.670;23.316;2022-08-06T06:12:02;94413.41;;;24.31;59.10
9774;BME280;4926;42.670;23.316;2022-08-06T06:14:34;94413.88;;;24.40;58.65
9774;BME280;4926;42.670;23.316;2022-08-06T06:17:30;94413.97;;;24.54;58.41
9774;BME280;4926;42.670;23.316;2022-08-06T06:20:10;94407.84;;;24.68;58.14
9774;BME280;4926;42.670;23.316;2022-08-06T06:22:44;94405.56;;;24.70;57.79
9774;BME280;4926;42.670;23.316;2022-08-06T06:25:15;94410.28;;;24.80;58.17
9774;BME280;4926;42.670;23.316;2022-08-06T06:27:50;94412.66;;;24.88;58.33
9774;BME280;4926;42.670;23.316;2022-08-06T06:30:25;94406.06;;;24.86;57.85
9774;BME280;4926;42.670;23.316;2022-08-06T06:32:59;94403.41;;;24.96;57.58
9774;BME280;4926;42.670;23.316;2022-08-06T06:35:32;94398.75;;;25.07;57.72
9774;BME280;4926;42.670;23.316;2022-08-06T06:38:28;94395.34;;;25.24;57.91
9774;BME280;4926;42.670;23.316;2022-08-06T06:41:02;94398.47;;;25.26;57.25
9774;BME280;4926;42.670;23.316;2022-08-06T06:43:35;94388.78;;;25.36;56.80
9774;BME280;4926;42.670;23.316;2022-08-06T06:46:10;94386.94;;;25.51;56.20
9774;BME280;4926;42.670;23.316;2022-08-06T06:48:49;94388.91;;;25.68;56.56
9774;BME280;4926;42.670;23.316;2022-08-06T06:51:20;94386.22;;;25.82;56.69
9774;BME280;4926;42.670;23.316;2022-08-06T06:53:55;94377.66;;;26.01;55.57
9774;BME280;4926;42.670;23.316;2022-08-06T06:56:25;94383.56;;;26.17;55.20
9774;BME280;4926;42.670;23.316;2022-08-06T06:58:58;94376.53;;;26.33;54.61
9774;BME280;4926;42.670;23.316;2022-08-06T07:01:28;94372.66;;;26.52;53.83
9774;BME280;4926;42.670;23.316;2022-08-06T07:03:57;94367.19;;;26.73;53.18
9774;BME280;4926;42.670;23.316;2022-08-06T07:06:26;94360.13;;;26.83;51.63
9774;BME280;4926;42.670;23.316;2022-08-06T07:08:54;94362.44;;;26.95;51.81
9774;BME280;4926;42.670;23.316;2022-08-06T07:11:27;94365.50;;;27.14;51.21
9774;BME280;4926;42.670;23.316;2022-08-06T07:13:57;94363.13;;;27.23;51.03
9774;BME280;4926;42.670;23.316;2022-08-06T07:16:26;94361.53;;;27.36;50.50
9774;BME280;4926;42.670;23.316;2022-08-06T07:18:53;94355.94;;;27.58;50.42
9774;BME280;4926;42.670;23.316;2022-08-06T07:21:21;94351.94;;;27.80;49.72
9774;BME280;4926;42.670;23.316;2022-08-06T07:23:51;94354.88;;;28.06;49.16
9774;BME280;4926;42.670;23.316;2022-08-06T07:26:23;94343.06;;;28.20;47.72
9774;BME280;4926;42.670;23.316;2022-08-06T07:28:53;94348.38;;;28.41;48.02
9774;BME280;4926;42.670;23.316;2022-08-06T07:31:29;94341.78;;;28.79;48.27
9774;BME280;4926;42.670;23.316;2022-08-06T07:33:58;94339.22;;;28.99;46.77
9774;BME280;4926;42.670;23.316;2022-08-06T07:36:27;94328.00;;;29.23;46.58
9774;BME280;4926;42.670;23.316;2022-08-06T07:39:01;94315.31;;;29.63;45.41
9774;BME280;4926;42.670;23.316;2022-08-06T07:41:29;94319.38;;;29.82;44.86
9774;BME280;4926;42.670;23.316;2022-08-06T07:43:58;94308.31;;;30.12;45.06
9774;BME280;4926;42.670;23.316;2022-08-06T07:46:36;94312.59;;;30.39;44.77
9774;BME280;4926;42.670;23.316;2022-08-06T07:49:06;94301.53;;;30.66;43.29
9774;BME280;4926;42.670;23.316;2022-08-06T07:51:38;94299.44;;;30.74;43.70
9774;BME280;4926;42.670;23.316;2022-08-06T07:54:07;94297.34;;;30.81;43.17
9774;BME280;4926;42.670;23.316;2022-08-06T07:56:39;94293.16;;;30.96;42.93
9774;BME280;4926;42.670;23.316;2022-08-06T07:59:07;94298.38;;;31.10;42.97
9774;BME280;4926;42.670;23.316;2022-08-06T08:01:36;94300.22;;;31.36;42.65
9774;BME280;4926;42.670;23.316;2022-08-06T08:04:05;94287.03;;;31.63;41.76
9774;BME280;4926;42.670;23.316;2022-08-06T08:06:50;94285.16;;;31.77;40.97
9774;BME280;4926;42.670;23.316;2022-08-06T08:09:19;94289.09;;;31.59;41.43
9774;BME280;4926;42.670;23.316;2022-08-06T08:11:49;94281.94;;;31.62;40.28
9774;BME280;4926;42.670;23.316;2022-08-06T08:14:19;94294.25;;;31.18;41.98
9774;BME280;4926;42.670;23.316;2022-08-06T08:16:50;94281.06;;;31.49;41.41
9774;BME280;4926;42.670;23.316;2022-08-06T08:19:24;94284.16;;;31.87;41.28
9774;BME280;4926;42.670;23.316;2022-08-06T08:21:53;94277.56;;;32.32;39.92
9774;BME280;4926;42.670;23.316;2022-08-06T08:24:22;94275.16;;;32.79;38.82
9774;BME280;4926;42.670;23.316;2022-08-06T08:26:54;94271.25;;;33.21;38.93
9774;BME280;4926;42.670;23.316;2022-08-06T08:29:23;94253.69;;;33.56;37.51
9774;BME280;4926;42.670;23.316;2022-08-06T08:31:53;94241.84;;;33.56;35.88
9774;BME280;4926;42.670;23.316;2022-08-06T08:34:21;94245.47;;;33.40;36.42
9774;BME280;4926;42.670;23.316;2022-08-06T08:36:48;94237.47;;;33.71;35.86
9774;BME280;4926;42.670;23.316;2022-08-06T08:39:16;94231.19;;;33.96;34.95
9774;BME280;4926;42.670;23.316;2022-08-06T08:41:44;94230.25;;;34.24;34.95
9774;BME280;4926;42.670;23.316;2022-08-06T08:44:13;94239.75;;;34.23;35.36
9774;BME280;4926;42.670;23.316;2022-08-06T08:46:41;94236.00;;;34.17;35.55
9774;BME280;4926;42.670;23.316;2022-08-06T08:49:17;94228.94;;;33.91;35.26
9774;BME280;4926;42.670;23.316;2022-08-06T08:51:45;94242.00;;;34.03;35.46
9774;BME280;4926;42.670;23.316;2022-08-06T08:54:18;94234.34;;;34.19;35.96
9774;BME280;4926;42.670;23.316;2022-08-06T08:56:47;94233.19;;;34.29;35.25
9774;BME280;4926;42.670;23.316;2022-08-06T08:59:19;94233.31;;;34.26;35.28
9774;BME280;4926;42.670;23.316;2022-08-06T09:01:49;94231.13;;;34.21;35.34
9774;BME280;4926;42.670;23.316;2022-08-06T09:04:18;94228.94;;;34.16;35.34
9774;BME280;4926;42.670;23.316;2022-08-06T09:06:48;94229.94;;;34.09;35.20
9774;BME280;4926;42.670;23.316;2022-08-06T09:09:15;94228.72;;;33.85;35.37
9774;BME280;4926;42.670;23.316;2022-08-06T09:11:42;94232.06;;;33.80;35.43
9774;BME280;4926;42.670;23.316;2022-08-06T09:14:09;94228.50;;;33.79;35.60
9774;BME280;4926;42.670;23.316;2022-08-06T09:16:37;94224.09;;;33.95;35.60
9774;BME280;4926;42.670;23.316;2022-08-06T09:19:05;94222.97;;;33.79;34.85
9774;BME280;4926;42.670;23.316;2022-08-06T09:21:33;94215.19;;;34.25;34.89
9774;BME280;4926;42.670;23.316;2022-08-06T09:24:03;94207.66;;;34.38;34.54
9774;BME280;4926;42.670;23.316;2022-08-06T09:26:36;94217.47;;;34.51;33.83
9774;BME280;4926;42.670;23.316;2022-08-06T09:29:19;94201.91;;;34.45;33.25
9774;BME280;4926;42.670;23.316;2022-08-06T09:31:46;94200.00;;;34.08;33.74
9774;BME280;4926;42.670;23.316;2022-08-06T09:34:21;94198.06;;;34.17;34.05
9774;BME280;4926;42.670;23.316;2022-08-06T09:36:49;94199.16;;;34.45;33.08
9774;BME280;4926;42.670;23.316;2022-08-06T09:39:16;94196.25;;;34.70;33.04
9774;BME280;4926;42.670;23.316;2022-08-06T09:41:58;94182.22;;;34.99;31.66
9774;BME280;4926;42.670;23.316;2022-08-06T09:44:25;94181.88;;;35.18;31.90
9774;BME280;4926;42.670;23.316;2022-08-06T09:46:52;94178.66;;;35.20;32.19
9774;BME280;4926;42.670;23.316;2022-08-06T09:49:23;94188.09;;;34.88;32.78
9774;BME280;4926;42.670;23.316;2022-08-06T09:52:09;94185.09;;;34.95;31.83
9774;BME280;4926;42.670;23.316;2022-08-06T09:54:37;94184.72;;;35.06;32.32
9774;BME280;4926;42.670;23.316;2022-08-06T09:57:04;94183.72;;;35.21;31.79
9774;BME280;4926;42.670;23.316;2022-08-06T09:59:41;94199.28;;;34.63;33.03
9774;BME280;4926;42.670;23.316;2022-08-06T10:02:12;94202.13;;;34.38;33.15
9774;BME280;4926;42.670;23.316;2022-08-06T10:04:43;94197.38;;;34.26;33.12
9774;BME280;4926;42.670;23.316;2022-08-06T10:07:14;94183.28;;;34.58;32.28
9774;BME280;4926;42.670;23.316;2022-08-06T10:09:51;94191.25;;;34.77;32.82
9774;BME280;4926;42.670;23.316;2022-08-06T10:12:20;94179.56;;;34.95;33.14
9774;BME280;4926;42.670;23.316;2022-08-06T10:14:48;94180.91;;;35.12;32.03
9774;BME280;4926;42.670;23.316;2022-08-06T10:17:15;94179.66;;;34.70;32.22
9774;BME280;4926;42.670;23.316;2022-08-06T10:19:45;94172.00;;;34.18;32.85
9774;BME280;4926;42.670;23.316;2022-08-06T10:22:15;94181.41;;;34.08;32.88
9774;BME280;4926;42.670;23.316;2022-08-06T10:24:54;94181.78;;;34.32;32.96
9774;BME280;4926;42.670;23.316;2022-08-06T10:27:23;94170.50;;;34.39;33.09
9774;BME280;4926;42.670;23.316;2022-08-06T10:29:51;94169.84;;;34.69;32.61
9774;BME280;4926;42.670;23.316;2022-08-06T10:32:22;94166.47;;;35.17;32.06
9774;BME280;4926;42.670;23.316;2022-08-06T10:34:53;94161.16;;;35.01;31.97
9774;BME280;4926;42.670;23.316;2022-08-06T10:37:23;94157.31;;;35.29;32.33
9774;BME280;4926;42.670;23.316;2022-08-06T10:39:54;94161.16;;;35.62;32.41
9774;BME280;4926;42.670;23.316;2022-08-06T10:42:25;94156.94;;;35.88;31.84
9774;BME280;4926;42.670;23.316;2022-08-06T10:44:52;94150.34;;;35.55;32.19
9774;BME280;4926;42.670;23.316;2022-08-06T10:47:21;94155.63;;;35.62;31.86
9774;BME280;4926;42.670;23.316;2022-08-06T10:49:49;94140.06;;;36.14;30.71
9774;BME280;4926;42.670;23.316;2022-08-06T10:52:18;94127.75;;;36.24;30.25
9774;BME280;4926;42.670;23.316;2022-08-06T10:54:47;94133.47;;;35.01;30.92
9774;BME280;4926;42.670;23.316;2022-08-06T10:57:14;94139.66;;;34.83;31.25
9774;BME280;4926;42.670;23.316;2022-08-06T10:59:42;94144.09;;;35.33;31.48
9774;BME280;4926;42.670;23.316;2022-08-06T11:02:27;94128.72;;;35.32;30.63
9774;BME280;4926;42.670;23.316;2022-08-06T11:04:57;94136.66;;;35.21;30.97
9774;BME280;4926;42.670;23.316;2022-08-06T11:08:02;94130.97;;;34.94;31.09
9774;BME280;4926;42.670;23.316;2022-08-06T11:10:49;94139.47;;;35.30;31.38
9774;BME280;4926;42.670;23.316;2022-08-06T11:13:27;94138.25;;;35.62;31.08
9774;BME280;4926;42.670;23.316;2022-08-06T11:15:55;94130.88;;;35.68;30.54
9774;BME280;4926;42.670;23.316;2022-08-06T11:18:22;94134.13;;;35.75;30.91
9774;BME280;4926;42.670;23.316;2022-08-06T11:20:50;94123.81;;;35.85;30.83
9774;BME280;4926;42.670;23.316;2022-08-06T11:23:25;94116.69;;;36.42;30.17
9774;BME280;4926;42.670;23.316;2022-08-06T11:25:55;94112.50;;;36.28;29.38
9774;BME280;4926;42.670;23.316;2022-08-06T11:34:12;94113.31;;;36.47;29.78
9774;BME280;4926;42.670;23.316;2022-08-06T11:36:48;94103.25;;;36.67;30.13
9774;BME280;4926;42.670;23.316;2022-08-06T11:39:16;94108.66;;;36.26;29.50
9774;BME280;4926;42.670;23.316;2022-08-06T11:41:52;94120.69;;;35.56;29.76
9774;BME280;4926;42.670;23.316;2022-08-06T11:44:20;94122.34;;;34.49;31.13
9774;BME280;4926;42.670;23.316;2022-08-06T11:46:48;94117.84;;;34.08;31.48
9774;BME280;4926;42.670;23.316;2022-08-06T11:49:17;94130.69;;;33.90;31.58
9774;BME280;4926;42.670;23.316;2022-08-06T11:51:49;94128.03;;;34.33;31.51
9774;BME280;4926;42.670;23.316;2022-08-06T11:54:17;94124.03;;;34.68;30.93
9774;BME280;4926;42.670;23.316;2022-08-06T12:00:20;94119.13;;;36.13;29.61
9774;BME280;4926;42.670;23.316;2022-08-06T12:02:55;94108.34;;;35.97;29.25
9774;BME280;4926;42.670;23.316;2022-08-06T12:05:38;94093.22;;;35.98;29.62
9774;BME280;4926;42.670;23.316;2022-08-06T12:08:26;94097.53;;;35.89;29.77
9774;BME280;4926;42.670;23.316;2022-08-06T12:11:27;94093.50;;;35.72;29.85
9774;BME280;4926;42.670;23.316;2022-08-06T12:13:56;94094.72;;;35.01;30.41
9774;BME280;4926;42.670;23.316;2022-08-06T12:16:37;94083.38;;;35.08;29.80
9774;BME280;4926;42.670;23.316;2022-08-06T12:19:11;94100.69;;;35.21;29.96
9774;BME280;4926;42.670;23.316;2022-08-06T12:21:40;94095.66;;;35.38;29.56
9774;BME280;4926;42.670;23.316;2022-08-06T12:24:11;94099.59;;;35.67;29.50
9774;BME280;4926;42.670;23.316;2022-08-06T12:26:41;94098.78;;;35.09;30.20
9774;BME280;4926;42.670;23.316;2022-08-06T12:29:08;94097.41;;;35.53;30.43
9774;BME280;4926;42.670;23.316;2022-08-06T12:31:38;94098.00;;;35.39;29.69
9774;BME280;4926;42.670;23.316;2022-08-06T12:34:06;94084.03;;;34.81;30.07
9774;BME280;4926;42.670;23.316;2022-08-06T12:36:35;94094.63;;;34.18;30.42
9774;BME280;4926;42.670;23.316;2022-08-06T12:39:07;94105.00;;;33.80;31.29
9774;BME280;4926;42.670;23.316;2022-08-06T12:41:41;94099.25;;;33.74;31.19
9774;BME280;4926;42.670;23.316;2022-08-06T12:44:09;94096.88;;;33.51;31.41
9774;BME280;4926;42.670;23.316;2022-08-06T12:46:37;94096.53;;;33.62;31.31
9774;BME280;4926;42.670;23.316;2022-08-06T12:49:04;94092.06;;;34.24;29.95
9774;BME280;4926;42.670;23.316;2022-08-06T12:51:32;94073.22;;;35.05;29.25
9774;BME280;4926;42.670;23.316;2022-08-06T12:54:00;94077.31;;;35.80;28.94
9774;BME280;4926;42.670;23.316;2022-08-06T12:56:30;94063.38;;;36.38;28.13
9774;BME280;4926;42.670;23.316;2022-08-06T12:59:00;94055.91;;;36.80;27.88
9774;BME280;4926;42.670;23.316;2022-08-06T13:01:29;94052.50;;;36.76;27.33
9774;BME280;4926;42.670;23.316;2022-08-06T13:03:58;94039.72;;;36.97;27.66
9774;BME280;4926;42.670;23.316;2022-08-06T13:06:27;94031.94;;;37.10;27.33
9774;BME280;4926;42.670;23.316;2022-08-06T13:08:55;94034.03;;;36.82;27.07
9774;BME280;4926;42.670;23.316;2022-08-06T13:11:29;94051.06;;;36.39;28.38
9774;BME280;4926;42.670;23.316;2022-08-06T13:13:56;94054.25;;;35.83;28.71
9774;BME280;4926;42.670;23.316;2022-08-06T13:16:37;94058.53;;;35.17;28.90
9774;BME280;4926;42.670;23.316;2022-08-06T13:19:08;94062.84;;;34.66;29.87
9774;BME280;4926;42.670;23.316;2022-08-06T13:21:36;94069.81;;;34.49;30.81
9774;BME280;4926;42.670;23.316;2022-08-06T13:24:05;94061.53;;;34.49;29.98
9774;BME280;4926;42.670;23.316;2022-08-06T13:26:33;94068.41;;;34.44;30.18
9774;BME280;4926;42.670;23.316;2022-08-06T13:29:06;94067.34;;;34.29;30.04
9774;BME280;4926;42.670;23.316;2022-08-06T13:31:34;94056.69;;;34.19;30.28
9774;BME280;4926;42.670;23.316;2022-08-06T13:34:02;94068.72;;;33.91;30.82
9774;BME280;4926;42.670;23.316;2022-08-06T13:36:31;94066.34;;;33.67;31.17
9774;BME280;4926;42.670;23.316;2022-08-06T13:38:58;94062.84;;;34.23;31.23
9774;BME280;4926;42.670;23.316;2022-08-06T13:41:29;94058.44;;;34.99;29.57
9774;BME280;4926;42.670;23.316;2022-08-06T13:43:58;94055.59;;;35.51;29.18